createdAt,value
2022-08-10T00:01:57.833Z,21.44
2022-08-10T00:04:27.309Z,21.39
2022-08-10T00:06:57.223Z,21.31
2022-08-10T00:09:26.997Z,21.22
2022-08-10T00:11:56.370Z,21.19
2022-08-10T00:14:25.722Z,21.21
2022-08-10T00:16:55.123Z,21.20
2022-08-10T00:19:27.092Z,21.17
2022-08-10T00:22:17.025Z,21.10
2022-08-10T00:24:46.534Z,20.98
2022-08-10T00:27:52.819Z,20.91
2022-08-10T00:30:05.231Z,20.87
2022-08-10T00:32:35.035Z,20.85
2022-08-10T00:35:08.521Z,20.83
2022-08-10T00:37:38.032Z,20.80
2022-08-10T00:40:08.147Z,20.73
2022-08-10T00:42:37.567Z,20.65
2022-08-10T00:45:07.332Z,20.63
2022-08-10T00:47:37.863Z,20.61
2022-08-10T00:50:10.859Z,20.55
2022-08-10T00:52:41.116Z,20.51
2022-08-10T00:55:10.942Z,20.47
2022-08-10T00:57:41.217Z,20.40
2022-08-10T01:00:11.733Z,20.28
2022-08-10T01:02:41.486Z,20.20
2022-08-10T01:05:14.812Z,20.13
2022-08-10T01:08:07.927Z,20.04
2022-08-10T01:10:41.551Z,19.94
2022-08-10T01:13:13.932Z,19.90
2022-08-10T01:15:50.705Z,19.85
2022-08-10T01:18:24.269Z,19.77
2022-08-10T01:21:03.394Z,19.76
2022-08-10T01:23:51.160Z,19.86
2022-08-10T01:26:31.573Z,19.88
2022-08-10T01:29:09.525Z,19.84
2022-08-10T01:31:44.207Z,19.84
2022-08-10T01:34:15.934Z,19.83
2022-08-10T01:36:48.913Z,19.82
2022-08-10T01:39:21.940Z,19.81
2022-08-10T01:41:53.744Z,19.78
2022-08-10T01:44:32.076Z,19.76
2022-08-10T01:47:22.089Z,19.63
2022-08-10T01:49:53.184Z,19.59
2022-08-10T01:52:23.519Z,19.53
2022-08-10T01:54:56.058Z,19.48
2022-08-10T01:57:27.109Z,19.49
2022-08-10T02:00:00.648Z,19.50
2022-08-10T02:02:38.669Z,19.48
2022-08-10T02:05:09.163Z,19.45
2022-08-10T02:07:39.994Z,19.42
2022-08-10T02:10:12.377Z,19.34
2022-08-10T02:12:43.649Z,19.25
2022-08-10T02:15:15.486Z,19.25
2022-08-10T02:17:59.747Z,19.22
2022-08-10T02:20:35.152Z,19.20
2022-08-10T02:23:08.590Z,19.19
2022-08-10T02:25:40.772Z,19.08
2022-08-10T02:28:30.558Z,19.05
2022-08-10T02:31:01.850Z,19.01
2022-08-10T02:33:37.330Z,18.89
2022-08-10T02:36:08.652Z,18.81
2022-08-10T02:38:57.594Z,18.80
2022-08-10T02:42:18.763Z,18.79
2022-08-10T02:45:20.482Z,18.83
2022-08-10T02:47:18.414Z,18.81
2022-08-10T02:49:52.614Z,18.69
2022-08-10T02:52:24.116Z,18.65
2022-08-10T02:54:55.222Z,18.55
2022-08-10T02:57:27.580Z,18.62
2022-08-10T02:59:58.561Z,18.59
2022-08-10T03:02:30.546Z,18.55
2022-08-10T03:05:04.337Z,18.56
2022-08-10T03:07:43.495Z,18.54
2022-08-10T03:10:16.597Z,18.42
2022-08-10T03:12:47.161Z,18.37
2022-08-10T03:15:17.425Z,18.36
2022-08-10T03:17:58.076Z,18.35
2022-08-10T03:20:37.993Z,18.30
2022-08-10T03:23:10.645Z,18.31
2022-08-10T03:25:40.210Z,18.31
2022-08-10T03:28:10.034Z,18.23
2022-08-10T03:30:47.615Z,18.05
2022-08-10T03:33:18.208Z,17.91
2022-08-10T03:36:43.834Z,17.87
2022-08-10T03:38:40.623Z,17.88
2022-08-10T03:41:15.809Z,17.85
2022-08-10T03:43:47.734Z,17.92
2022-08-10T03:46:18.390Z,17.86
2022-08-10T03:48:50.067Z,17.68
2022-08-10T03:51:22.692Z,17.63
2022-08-10T03:54:05.038Z,17.77
2022-08-10T03:56:40.459Z,17.70
2022-08-10T03:59:11.292Z,17.62
2022-08-10T04:02:45.762Z,17.63
2022-08-10T04:04:30.442Z,17.70
2022-08-10T04:07:03.426Z,17.65
2022-08-10T04:09:56.023Z,17.70
2022-08-10T04:12:23.288Z,17.53
2022-08-10T04:14:53.679Z,17.56
2022-08-10T04:17:56.888Z,17.51
2022-08-10T04:20:16.402Z,17.39
2022-08-10T04:22:48.870Z,17.44
2022-08-10T04:25:18.828Z,17.47
2022-08-10T04:27:48.648Z,17.50
2022-08-10T04:30:18.325Z,17.49
2022-08-10T04:32:49.596Z,17.51
2022-08-10T04:35:21.643Z,17.47
2022-08-10T04:37:54.213Z,17.48
2022-08-10T04:40:29.592Z,17.46
2022-08-10T04:43:12.297Z,17.44
2022-08-10T04:45:48.536Z,17.44
2022-08-10T04:48:40.839Z,17.43
2022-08-10T04:51:11.152Z,17.50
2022-08-10T04:54:04.080Z,17.60
2022-08-10T04:56:36.456Z,17.72
2022-08-10T04:59:06.061Z,17.73
2022-08-10T05:01:37.748Z,17.70
2022-08-10T05:04:34.628Z,17.76
2022-08-10T05:07:16.611Z,17.83
2022-08-10T05:10:04.954Z,17.96
2022-08-10T05:12:37.407Z,18.00
2022-08-10T05:15:09.098Z,18.02
2022-08-10T05:17:38.976Z,18.03
2022-08-10T05:20:09.595Z,18.06
2022-08-10T05:22:40.134Z,18.14
2022-08-10T05:25:13.493Z,18.13
2022-08-10T05:27:43.679Z,18.19
2022-08-10T05:30:15.132Z,18.24
2022-08-10T05:32:55.593Z,18.34
2022-08-10T05:35:27.673Z,18.44
2022-08-10T05:38:12.330Z,18.40
2022-08-10T05:40:48.073Z,18.59
2022-08-10T05:43:21.290Z,18.80
2022-08-10T05:46:19.999Z,18.96
2022-08-10T05:48:59.473Z,19.15
2022-08-10T05:51:30.753Z,19.31
2022-08-10T05:54:06.047Z,19.40
2022-08-10T05:56:56.016Z,19.42
2022-08-10T06:00:29.450Z,19.46
2022-08-10T06:02:30.988Z,19.53
2022-08-10T06:05:07.335Z,19.60
2022-08-10T06:07:38.064Z,19.68
2022-08-10T06:10:10.310Z,19.77
2022-08-10T06:12:54.203Z,19.91
2022-08-10T06:15:50.607Z,20.04
2022-08-10T06:18:14.673Z,20.12
2022-08-10T06:20:44.720Z,20.23
2022-08-10T06:23:14.819Z,20.33
2022-08-10T06:26:09.752Z,20.40
2022-08-10T06:28:37.884Z,20.47
2022-08-10T06:31:08.202Z,20.60
2022-08-10T06:33:39.370Z,20.68
2022-08-10T06:36:10.215Z,20.69
2022-08-10T06:38:40.824Z,20.84
2022-08-10T06:41:13.183Z,20.98
2022-08-10T06:43:50.322Z,21.05
2022-08-10T06:46:22.441Z,21.19
2022-08-10T06:48:53.342Z,21.27
2022-08-10T06:51:24.651Z,21.33
2022-08-10T06:53:56.158Z,21.33
2022-08-10T06:56:38.210Z,21.32
2022-08-10T06:59:22.083Z,21.44
2022-08-10T07:01:55.526Z,21.63
2022-08-10T07:04:33.044Z,21.80
2022-08-10T07:07:04.774Z,21.88
2022-08-10T07:09:35.243Z,21.93
2022-08-10T07:12:07.528Z,22.08
2022-08-10T07:14:43.651Z,22.15
2022-08-10T07:17:15.607Z,22.30
2022-08-10T07:19:50.108Z,22.44
2022-08-10T07:23:08.362Z,22.64
2022-08-10T07:25:13.852Z,22.77
2022-08-10T07:27:59.195Z,22.91
2022-08-10T07:30:35.016Z,23.06
2022-08-10T07:33:05.145Z,23.17
2022-08-10T07:35:42.066Z,23.28
2022-08-10T07:38:14.276Z,23.45
2022-08-10T07:40:45.041Z,23.58
2022-08-10T07:43:15.709Z,23.61
2022-08-10T07:45:48.848Z,23.65
2022-08-10T07:48:19.655Z,23.79
2022-08-10T07:50:49.956Z,23.91
2022-08-10T07:53:21.875Z,24.03
2022-08-10T07:56:04.330Z,24.09
2022-08-10T07:58:38.549Z,24.14
2022-08-10T08:01:10.692Z,24.22
2022-08-10T08:03:40.782Z,24.24
2022-08-10T08:06:11.875Z,24.36
2022-08-10T08:08:43.864Z,24.45
2022-08-10T08:11:25.640Z,24.47
2022-08-10T08:13:56.760Z,24.52
2022-08-10T08:16:29.432Z,24.70
2022-08-10T08:24:09.713Z,24.85
2022-08-10T08:24:40.546Z,24.93
2022-08-10T08:27:10.434Z,25.01
2022-08-10T08:29:41.890Z,25.01
2022-08-10T08:32:14.526Z,25.04
2022-08-10T08:34:45.193Z,25.12
2022-08-10T08:38:33.325Z,25.15
2022-08-10T08:40:08.121Z,25.24
2022-08-10T08:42:52.325Z,25.33
2022-08-10T08:45:26.053Z,25.40
2022-08-10T08:48:11.172Z,25.42
2022-08-10T08:50:47.677Z,25.46
2022-08-10T08:54:01.901Z,25.50
2022-08-10T08:56:25.005Z,25.61
2022-08-10T08:59:02.643Z,25.83
2022-08-10T09:01:41.631Z,25.91
2022-08-10T09:04:21.280Z,25.98
2022-08-10T09:06:57.553Z,26.07
2022-08-10T09:09:35.451Z,26.21
2022-08-10T09:12:14.391Z,26.32
2022-08-10T09:14:49.222Z,26.41
2022-08-10T09:17:21.577Z,26.57
2022-08-10T09:19:57.331Z,26.56
2022-08-10T09:22:29.605Z,26.62
2022-08-10T09:25:00.730Z,26.75
2022-08-10T09:27:35.615Z,26.80
2022-08-10T09:30:10.553Z,26.85
2022-08-10T09:36:15.357Z,26.97
2022-08-10T09:36:26.578Z,27.02
2022-08-10T09:38:37.344Z,26.99
2022-08-10T09:41:13.275Z,27.03
2022-08-10T09:43:50.946Z,27.20
2022-08-10T09:46:27.713Z,27.36
2022-08-10T09:49:01.520Z,27.34
2022-08-10T09:51:46.742Z,27.41
2022-08-10T09:54:29.978Z,27.47
2022-08-10T09:57:44.946Z,27.59
2022-08-10T10:00:02.173Z,27.67
2022-08-10T10:02:39.234Z,27.67
2022-08-10T10:05:13.604Z,27.66
2022-08-10T10:07:48.769Z,27.66
2022-08-10T10:10:22.094Z,27.73
2022-08-10T10:12:53.838Z,27.74
2022-08-10T10:15:28.335Z,27.74
2022-08-10T10:18:06.206Z,27.48
2022-08-10T10:20:38.231Z,27.42
2022-08-10T10:23:16.510Z,27.31
2022-08-10T10:25:50.706Z,27.23
2022-08-10T10:29:06.852Z,27.08
2022-08-10T16:18:15.091Z,31.21
2022-08-10T16:20:55.162Z,31.24
2022-08-10T16:23:26.630Z,31.26
2022-08-10T16:26:03.034Z,31.35
2022-08-10T16:28:36.931Z,31.37
2022-08-10T16:31:08.334Z,31.32
2022-08-10T16:33:53.386Z,31.18
2022-08-10T16:36:24.773Z,31.08
2022-08-10T16:38:58.046Z,30.98
2022-08-10T16:42:04.081Z,31.03
2022-08-10T16:44:20.256Z,31.06
2022-08-10T16:46:50.790Z,31.08
2022-08-10T16:49:23.722Z,31.21
2022-08-10T16:51:54.314Z,31.40
2022-08-10T16:54:27.619Z,31.47
2022-08-10T16:57:02.001Z,31.52
2022-08-10T16:59:33.345Z,31.55
2022-08-10T17:02:04.314Z,31.67
2022-08-10T17:04:36.929Z,31.74
2022-08-10T17:07:08.301Z,31.66
2022-08-10T17:09:40.190Z,31.68
2022-08-10T17:12:11.875Z,31.74
2022-08-10T17:14:42.394Z,31.76
2022-08-10T17:17:15.302Z,31.75
2022-08-10T17:19:47.754Z,31.71
2022-08-10T17:22:18.990Z,31.72
2022-08-10T17:24:49.618Z,31.84
2022-08-10T17:28:04.671Z,31.92
2022-08-10T17:30:16.185Z,32.01
2022-08-10T17:33:02.044Z,31.97
2022-08-10T17:35:36.219Z,32.10
2022-08-10T17:38:08.417Z,32.12
2022-08-10T17:40:45.206Z,32.08
2022-08-10T17:43:15.080Z,32.02
2022-08-10T17:46:05.216Z,32.06
2022-08-10T17:48:37.244Z,32.21
2022-08-10T17:51:12.531Z,32.24
2022-08-10T17:53:43.111Z,32.20
2022-08-10T17:56:13.403Z,31.99
2022-08-10T17:58:47.851Z,31.52
2022-08-10T18:01:41.644Z,31.04
2022-08-10T18:04:15.034Z,30.49
2022-08-10T18:06:48.017Z,30.11
2022-08-10T18:09:27.040Z,29.80
2022-08-10T18:12:02.338Z,29.48
2022-08-10T18:14:40.384Z,29.28
2022-08-10T22:16:36.007Z,21.95
2022-08-10T22:19:18.506Z,21.88
2022-08-10T22:22:07.051Z,21.82
2022-08-10T22:25:16.730Z,21.68
2022-08-10T22:27:59.983Z,21.64
2022-08-10T22:31:14.964Z,21.62
2022-08-10T22:33:56.864Z,21.68
2022-08-10T22:36:59.988Z,21.68
2022-08-10T22:40:11.701Z,21.68
2022-08-10T22:42:58.417Z,21.46
2022-08-10T22:45:54.087Z,21.25
2022-08-10T22:48:36.290Z,21.12
2022-08-10T22:51:30.881Z,21.01
2022-08-10T22:54:30.530Z,20.88
2022-08-10T22:57:22.861Z,20.84
2022-08-10T22:59:53.602Z,20.84
2022-08-10T23:02:30.784Z,20.86
2022-08-10T23:05:04.840Z,20.76
2022-08-10T23:07:38.385Z,20.70
2022-08-10T23:10:09.232Z,20.64
2022-08-10T23:12:40.546Z,20.68
2022-08-10T23:15:29.917Z,20.69
2022-08-10T23:18:12.188Z,20.63
2022-08-10T23:20:42.676Z,20.64
2022-08-10T23:23:24.096Z,20.65
2022-08-10T23:25:57.164Z,20.70
2022-08-10T23:28:38.268Z,20.73
2022-08-10T23:31:12.669Z,20.61
2022-08-10T23:33:42.733Z,20.50
2022-08-10T23:36:33.546Z,20.33
2022-08-10T23:39:27.033Z,20.10
2022-08-10T23:42:03.067Z,19.94
2022-08-10T23:44:36.521Z,19.93
2022-08-10T23:47:06.360Z,19.85
2022-08-10T23:49:37.102Z,19.73
2022-08-10T23:52:13.669Z,19.72
2022-08-10T23:54:50.532Z,19.88
2022-08-10T23:57:21.355Z,19.87
2022-08-10T23:59:55.542Z,19.84
